sensor_id;sensor_type;location;lat;lon;timestamp;P1;durP1;ratioP1;P2;durP2;ratioP2
17251;SDS011;8742;51.716;8.790;2022-12-07T00:01:57;82.17;;;35.80;;
17251;SDS011;8742;51.716;8.790;2022-12-07T00:04:24;91.97;;;37.03;;
17251;SDS011;8742;51.716;8.790;2022-12-07T00:06:52;81.90;;;37.53;;
17251;SDS011;8742;51.716;8.790;2022-12-07T00:09:19;88.37;;;36.20;;
17251;SDS011;8742;51.716;8.790;2022-12-07T00:11:48;94.10;;;39.20;;
17251;SDS011;8742;51.716;8.790;2022-12-07T00:14:16;85.87;;;37.60;;
17251;SDS011;8742;51.716;8.790;2022-12-07T00:16:43;91.20;;;36.87;;
17251;SDS011;8742;51.716;8.790;2022-12-07T00:19:11;88.13;;;39.47;;
17251;SDS011;8742;51.716;8.790;2022-12-07T00:21:39;98.83;;;40.53;;
17251;SDS011;8742;51.716;8.790;2022-12-07T00:24:09;92.43;;;41.87;;
17251;SDS011;8742;51.716;8.790;2022-12-07T00:26:38;94.57;;;37.80;;
17251;SDS011;8742;51.716;8.790;2022-12-07T00:29:07;102.13;;;42.07;;
17251;SDS011;8742;51.716;8.790;2022-12-07T00:31:37;92.23;;;38.50;;
17251;SDS011;8742;51.716;8.790;2022-12-07T00:34:04;96.23;;;40.77;;
17251;SDS011;8742;51.716;8.790;2022-12-07T00:36:32;112.30;;;42.67;;
17251;SDS011;8742;51.716;8.790;2022-12-07T00:38:59;106.57;;;41.80;;
17251;SDS011;8742;51.716;8.790;2022-12-07T00:41:28;101.57;;;42.40;;
17251;SDS011;8742;51.716;8.790;2022-12-07T00:43:56;106.20;;;42.57;;
17251;SDS011;8742;51.716;8.790;2022-12-07T00:46:23;113.87;;;45.00;;
17251;SDS011;8742;51.716;8.790;2022-12-07T00:48:51;116.20;;;44.10;;
17251;SDS011;8742;51.716;8.790;2022-12-07T00:51:19;119.43;;;42.57;;
17251;SDS011;8742;51.716;8.790;2022-12-07T00:53:47;113.87;;;45.73;;
17251;SDS011;8742;51.716;8.790;2022-12-07T00:56:15;122.03;;;46.40;;
17251;SDS011;8742;51.716;8.790;2022-12-07T00:58:45;124.57;;;46.60;;
17251;SDS011;8742;51.716;8.790;2022-12-07T01:01:18;121.37;;;45.43;;
17251;SDS011;8742;51.716;8.790;2022-12-07T01:03:44;115.80;;;45.00;;
17251;SDS011;8742;51.716;8.790;2022-12-07T01:06:13;103.23;;;41.90;;
17251;SDS011;8742;51.716;8.790;2022-12-07T01:08:41;115.40;;;44.87;;
17251;SDS011;8742;51.716;8.790;2022-12-07T01:11:09;110.00;;;45.27;;
17251;SDS011;8742;51.716;8.790;2022-12-07T01:13:39;108.17;;;42.53;;
17251;SDS011;8742;51.716;8.790;2022-12-07T01:16:08;113.70;;;45.87;;
17251;SDS011;8742;51.716;8.790;2022-12-07T01:18:38;103.73;;;41.17;;
17251;SDS011;8742;51.716;8.790;2022-12-07T01:21:06;102.63;;;43.70;;
17251;SDS011;8742;51.716;8.790;2022-12-07T01:23:35;103.03;;;42.23;;
17251;SDS011;8742;51.716;8.790;2022-12-07T01:26:03;102.00;;;43.73;;
17251;SDS011;8742;51.716;8.790;2022-12-07T01:28:31;122.60;;;45.23;;
17251;SDS011;8742;51.716;8.790;2022-12-07T01:30:59;111.87;;;44.73;;
17251;SDS011;8742;51.716;8.790;2022-12-07T01:33:29;105.80;;;43.33;;
17251;SDS011;8742;51.716;8.790;2022-12-07T01:36:02;103.20;;;43.47;;
17251;SDS011;8742;51.716;8.790;2022-12-07T01:38:29;104.63;;;43.77;;
17251;SDS011;8742;51.716;8.790;2022-12-07T01:40:57;99.07;;;43.23;;
17251;SDS011;8742;51.716;8.790;2022-12-07T01:43:25;90.63;;;40.60;;
17251;SDS011;8742;51.716;8.790;2022-12-07T01:45:56;102.27;;;42.70;;
17251;SDS011;8742;51.716;8.790;2022-12-07T01:48:24;99.20;;;43.80;;
17251;SDS011;8742;51.716;8.790;2022-12-07T01:50:55;97.77;;;42.07;;
17251;SDS011;8742;51.716;8.790;2022-12-07T01:53:25;90.10;;;41.83;;
17251;SDS011;8742;51.716;8.790;2022-12-07T01:55:54;100.97;;;42.60;;
17251;SDS011;8742;51.716;8.790;2022-12-07T01:58:23;94.07;;;40.77;;
17251;SDS011;8742;51.716;8.790;2022-12-07T02:00:51;93.60;;;40.87;;
17251;SDS011;8742;51.716;8.790;2022-12-07T02:03:18;104.53;;;42.50;;
17251;SDS011;8742;51.716;8.790;2022-12-07T02:05:48;95.30;;;41.47;;
17251;SDS011;8742;51.716;8.790;2022-12-07T02:08:17;99.70;;;41.10;;
17251;SDS011;8742;51.716;8.790;2022-12-07T02:10:44;93.77;;;40.20;;
17251;SDS011;8742;51.716;8.790;2022-12-07T02:13:12;86.87;;;41.50;;
17251;SDS011;8742;51.716;8.790;2022-12-07T02:15:44;90.60;;;40.97;;
17251;SDS011;8742;51.716;8.790;2022-12-07T02:18:28;103.20;;;40.53;;
17251;SDS011;8742;51.716;8.790;2022-12-07T02:21:05;93.77;;;41.47;;
17251;SDS011;8742;51.716;8.790;2022-12-07T02:23:44;82.93;;;38.03;;
17251;SDS011;8742;51.716;8.790;2022-12-07T02:26:44;85.43;;;38.63;;
17251;SDS011;8742;51.716;8.790;2022-12-07T02:29:44;88.53;;;38.77;;
17251;SDS011;8742;51.716;8.790;2022-12-07T02:32:16;79.60;;;38.30;;
17251;SDS011;8742;51.716;8.790;2022-12-07T02:34:47;83.80;;;38.27;;
17251;SDS011;8742;51.716;8.790;2022-12-07T02:37:21;80.27;;;37.37;;
17251;SDS011;8742;51.716;8.790;2022-12-07T02:39:59;80.70;;;36.83;;
17251;SDS011;8742;51.716;8.790;2022-12-07T02:42:31;74.57;;;35.23;;
17251;SDS011;8742;51.716;8.790;2022-12-07T02:45:04;75.10;;;35.67;;
17251;SDS011;8742;51.716;8.790;2022-12-07T02:47:33;70.77;;;34.87;;
17251;SDS011;8742;51.716;8.790;2022-12-07T02:50:02;71.93;;;33.60;;
17251;SDS011;8742;51.716;8.790;2022-12-07T02:52:30;75.53;;;34.60;;
17251;SDS011;8742;51.716;8.790;2022-12-07T02:54:57;70.33;;;32.87;;
17251;SDS011;8742;51.716;8.790;2022-12-07T02:57:27;71.23;;;31.30;;
17251;SDS011;8742;51.716;8.790;2022-12-07T03:00:06;63.80;;;31.67;;
17251;SDS011;8742;51.716;8.790;2022-12-07T03:02:37;63.13;;;31.10;;
17251;SDS011;8742;51.716;8.790;2022-12-07T03:05:13;74.70;;;33.33;;
17251;SDS011;8742;51.716;8.790;2022-12-07T03:07:51;63.13;;;32.07;;
17251;SDS011;8742;51.716;8.790;2022-12-07T03:10:28;69.90;;;33.50;;
17251;SDS011;8742;51.716;8.790;2022-12-07T03:13:02;67.70;;;32.03;;
17251;SDS011;8742;51.716;8.790;2022-12-07T03:15:35;71.77;;;31.43;;
17251;SDS011;8742;51.716;8.790;2022-12-07T03:18:08;70.33;;;31.33;;
17251;SDS011;8742;51.716;8.790;2022-12-07T03:20:38;66.23;;;30.70;;
17251;SDS011;8742;51.716;8.790;2022-12-07T03:23:08;63.07;;;31.03;;
17251;SDS011;8742;51.716;8.790;2022-12-07T03:25:38;60.67;;;29.77;;
17251;SDS011;8742;51.716;8.790;2022-12-07T03:28:07;66.07;;;31.30;;
17251;SDS011;8742;51.716;8.790;2022-12-07T03:30:39;64.23;;;29.57;;
17251;SDS011;8742;51.716;8.790;2022-12-07T03:33:12;56.90;;;25.97;;
17251;SDS011;8742;51.716;8.790;2022-12-07T03:35:44;59.00;;;27.83;;
17251;SDS011;8742;51.716;8.790;2022-12-07T03:38:16;53.57;;;28.07;;
17251;SDS011;8742;51.716;8.790;2022-12-07T03:40:47;56.90;;;28.70;;
17251;SDS011;8742;51.716;8.790;2022-12-07T03:43:19;60.77;;;26.33;;
17251;SDS011;8742;51.716;8.790;2022-12-07T03:45:51;53.60;;;26.30;;
17251;SDS011;8742;51.716;8.790;2022-12-07T03:48:28;50.77;;;25.17;;
17251;SDS011;8742;51.716;8.790;2022-12-07T03:51:13;53.10;;;24.67;;
17251;SDS011;8742;51.716;8.790;2022-12-07T03:56:35;49.57;;;22.43;;
17251;SDS011;8742;51.716;8.790;2022-12-07T03:59:03;49.97;;;24.20;;
17251;SDS011;8742;51.716;8.790;2022-12-07T04:01:32;49.57;;;22.10;;
17251;SDS011;8742;51.716;8.790;2022-12-07T04:04:13;47.07;;;21.47;;
17251;SDS011;8742;51.716;8.790;2022-12-07T04:06:40;42.90;;;20.93;;
17251;SDS011;8742;51.716;8.790;2022-12-07T04:09:07;46.53;;;21.07;;
17251;SDS011;8742;51.716;8.790;2022-12-07T04:11:34;44.13;;;20.33;;
17251;SDS011;8742;51.716;8.790;2022-12-07T04:14:01;52.03;;;20.60;;
17251;SDS011;8742;51.716;8.790;2022-12-07T04:16:50;42.90;;;20.13;;
17251;SDS011;8742;51.716;8.790;2022-12-07T04:19:32;43.90;;;19.57;;
17251;SDS011;8742;51.716;8.790;2022-12-07T04:22:01;42.80;;;19.93;;
17251;SDS011;8742;51.716;8.790;2022-12-07T04:24:29;42.30;;;18.93;;
17251;SDS011;8742;51.716;8.790;2022-12-07T04:26:56;47.57;;;20.57;;
17251;SDS011;8742;51.716;8.790;2022-12-07T04:29:23;38.13;;;17.90;;
17251;SDS011;8742;51.716;8.790;2022-12-07T04:31:52;43.03;;;19.70;;
17251;SDS011;8742;51.716;8.790;2022-12-07T04:34:19;35.20;;;17.83;;
17251;SDS011;8742;51.716;8.790;2022-12-07T04:36:46;43.50;;;16.90;;
17251;SDS011;8742;51.716;8.790;2022-12-07T04:39:42;32.23;;;17.50;;
17251;SDS011;8742;51.716;8.790;2022-12-07T04:42:05;34.80;;;15.63;;
17251;SDS011;8742;51.716;8.790;2022-12-07T04:44:33;34.53;;;16.97;;
17251;SDS011;8742;51.716;8.790;2022-12-07T04:47:02;29.70;;;15.27;;
17251;SDS011;8742;51.716;8.790;2022-12-07T04:49:29;30.90;;;15.97;;
17251;SDS011;8742;51.716;8.790;2022-12-07T04:51:56;36.40;;;15.87;;
17251;SDS011;8742;51.716;8.790;2022-12-07T04:54:23;31.07;;;14.50;;
17251;SDS011;8742;51.716;8.790;2022-12-07T04:56:50;35.17;;;15.70;;
17251;SDS011;8742;51.716;8.790;2022-12-07T04:59:17;31.30;;;15.00;;
17251;SDS011;8742;51.716;8.790;2022-12-07T05:01:50;30.87;;;14.37;;
17251;SDS011;8742;51.716;8.790;2022-12-07T05:04:19;29.20;;;13.97;;
17251;SDS011;8742;51.716;8.790;2022-12-07T05:06:46;28.33;;;13.63;;
17251;SDS011;8742;51.716;8.790;2022-12-07T05:09:13;34.50;;;15.33;;
17251;SDS011;8742;51.716;8.790;2022-12-07T05:11:40;39.93;;;15.63;;
17251;SDS011;8742;51.716;8.790;2022-12-07T05:14:09;36.27;;;15.23;;
17251;SDS011;8742;51.716;8.790;2022-12-07T05:16:50;34.50;;;14.90;;
17251;SDS011;8742;51.716;8.790;2022-12-07T05:19:36;36.53;;;16.27;;
17251;SDS011;8742;51.716;8.790;2022-12-07T05:22:03;35.73;;;17.73;;
17251;SDS011;8742;51.716;8.790;2022-12-07T05:24:30;36.10;;;18.27;;
17251;SDS011;8742;51.716;8.790;2022-12-07T05:26:57;46.83;;;19.00;;
17251;SDS011;8742;51.716;8.790;2022-12-07T05:29:24;38.67;;;18.40;;
17251;SDS011;8742;51.716;8.790;2022-12-07T05:31:51;42.13;;;18.57;;
17251;SDS011;8742;51.716;8.790;2022-12-07T05:34:18;42.03;;;18.57;;
17251;SDS011;8742;51.716;8.790;2022-12-07T05:36:47;48.77;;;22.17;;
17251;SDS011;8742;51.716;8.790;2022-12-07T05:39:14;37.70;;;18.17;;
17251;SDS011;8742;51.716;8.790;2022-12-07T05:41:41;40.57;;;18.47;;
17251;SDS011;8742;51.716;8.790;2022-12-07T05:44:31;37.77;;;18.60;;
17251;SDS011;8742;51.716;8.790;2022-12-07T05:46:58;38.23;;;17.83;;
17251;SDS011;8742;51.716;8.790;2022-12-07T05:49:25;37.13;;;19.40;;
17251;SDS011;8742;51.716;8.790;2022-12-07T05:51:54;44.93;;;16.80;;
17251;SDS011;8742;51.716;8.790;2022-12-07T05:54:21;38.60;;;17.03;;
17251;SDS011;8742;51.716;8.790;2022-12-07T05:56:49;35.03;;;17.57;;
17251;SDS011;8742;51.716;8.790;2022-12-07T05:59:16;43.30;;;18.33;;
17251;SDS011;8742;51.716;8.790;2022-12-07T06:01:48;40.57;;;19.50;;
17251;SDS011;8742;51.716;8.790;2022-12-07T06:04:29;52.13;;;21.10;;
17251;SDS011;8742;51.716;8.790;2022-12-07T06:07:00;60.23;;;25.83;;
17251;SDS011;8742;51.716;8.790;2022-12-07T06:09:44;49.60;;;19.47;;
17251;SDS011;8742;51.716;8.790;2022-12-07T06:12:12;40.87;;;18.37;;
17251;SDS011;8742;51.716;8.790;2022-12-07T06:14:59;41.73;;;18.57;;
17251;SDS011;8742;51.716;8.790;2022-12-07T06:17:29;39.87;;;17.77;;
17251;SDS011;8742;51.716;8.790;2022-12-07T06:19:56;41.53;;;19.17;;
17251;SDS011;8742;51.716;8.790;2022-12-07T06:22:24;37.40;;;17.87;;
17251;SDS011;8742;51.716;8.790;2022-12-07T06:24:51;35.30;;;17.30;;
17251;SDS011;8742;51.716;8.790;2022-12-07T06:27:18;42.10;;;18.97;;
17251;SDS011;8742;51.716;8.790;2022-12-07T06:29:45;48.57;;;18.10;;
17251;SDS011;8742;51.716;8.790;2022-12-07T06:32:12;52.80;;;20.87;;
17251;SDS011;8742;51.716;8.790;2022-12-07T06:34:39;45.07;;;19.17;;
17251;SDS011;8742;51.716;8.790;2022-12-07T06:37:05;39.13;;;18.50;;
17251;SDS011;8742;51.716;8.790;2022-12-07T06:39:34;48.57;;;19.87;;
17251;SDS011;8742;51.716;8.790;2022-12-07T06:42:01;44.93;;;19.93;;
17251;SDS011;8742;51.716;8.790;2022-12-07T06:44:27;40.90;;;19.40;;
17251;SDS011;8742;51.716;8.790;2022-12-07T06:46:54;43.03;;;19.50;;
17251;SDS011;8742;51.716;8.790;2022-12-07T06:49:21;37.77;;;19.10;;
17251;SDS011;8742;51.716;8.790;2022-12-07T06:51:48;44.07;;;20.00;;
17251;SDS011;8742;51.716;8.790;2022-12-07T06:54:15;42.10;;;20.37;;
17251;SDS011;8742;51.716;8.790;2022-12-07T06:56:43;41.53;;;19.30;;
17251;SDS011;8742;51.716;8.790;2022-12-07T06:59:10;49.33;;;20.23;;
17251;SDS011;8742;51.716;8.790;2022-12-07T07:01:37;39.47;;;18.60;;
17251;SDS011;8742;51.716;8.790;2022-12-07T07:04:04;48.13;;;19.87;;
17251;SDS011;8742;51.716;8.790;2022-12-07T07:06:31;41.20;;;20.43;;
17251;SDS011;8742;51.716;8.790;2022-12-07T07:08:58;46.90;;;20.03;;
17251;SDS011;8742;51.716;8.790;2022-12-07T07:11:25;48.33;;;20.20;;
17251;SDS011;8742;51.716;8.790;2022-12-07T07:13:53;44.77;;;20.20;;
17251;SDS011;8742;51.716;8.790;2022-12-07T07:16:22;44.90;;;18.93;;
17251;SDS011;8742;51.716;8.790;2022-12-07T07:18:49;37.30;;;19.23;;
17251;SDS011;8742;51.716;8.790;2022-12-07T07:21:16;39.50;;;18.63;;
17251;SDS011;8742;51.716;8.790;2022-12-07T07:23:43;44.60;;;19.27;;
17251;SDS011;8742;51.716;8.790;2022-12-07T07:26:10;41.30;;;18.40;;
17251;SDS011;8742;51.716;8.790;2022-12-07T07:28:36;45.73;;;19.43;;
17251;SDS011;8742;51.716;8.790;2022-12-07T07:31:05;41.03;;;19.23;;
17251;SDS011;8742;51.716;8.790;2022-12-07T07:33:32;41.07;;;20.27;;
17251;SDS011;8742;51.716;8.790;2022-12-07T07:35:59;77.23;;;32.27;;
17251;SDS011;8742;51.716;8.790;2022-12-07T07:38:26;42.97;;;18.07;;
17251;SDS011;8742;51.716;8.790;2022-12-07T07:40:53;46.27;;;17.73;;
17251;SDS011;8742;51.716;8.790;2022-12-07T07:43:19;44.17;;;17.40;;
17251;SDS011;8742;51.716;8.790;2022-12-07T07:45:46;46.87;;;18.27;;
17251;SDS011;8742;51.716;8.790;2022-12-07T07:48:14;38.40;;;16.73;;
17251;SDS011;8742;51.716;8.790;2022-12-07T07:50:41;37.30;;;16.97;;
17251;SDS011;8742;51.716;8.790;2022-12-07T07:53:08;42.50;;;16.73;;
17251;SDS011;8742;51.716;8.790;2022-12-07T07:55:35;42.60;;;16.23;;
17251;SDS011;8742;51.716;8.790;2022-12-07T07:58:02;37.83;;;16.53;;
17251;SDS011;8742;51.716;8.790;2022-12-07T08:00:28;29.20;;;15.73;;
17251;SDS011;8742;51.716;8.790;2022-12-07T08:02:55;30.80;;;16.43;;
17251;SDS011;8742;51.716;8.790;2022-12-07T08:05:23;35.67;;;15.90;;
17251;SDS011;8742;51.716;8.790;2022-12-07T08:07:50;41.50;;;15.90;;
17251;SDS011;8742;51.716;8.790;2022-12-07T08:10:17;36.23;;;17.07;;
17251;SDS011;8742;51.716;8.790;2022-12-07T08:12:44;37.80;;;17.20;;
17251;SDS011;8742;51.716;8.790;2022-12-07T08:15:29;38.07;;;16.77;;
17251;SDS011;8742;51.716;8.790;2022-12-07T08:17:56;37.50;;;16.73;;
17251;SDS011;8742;51.716;8.790;2022-12-07T08:20:25;37.23;;;17.03;;
17251;SDS011;8742;51.716;8.790;2022-12-07T08:22:52;44.47;;;17.33;;
17251;SDS011;8742;51.716;8.790;2022-12-07T08:25:19;37.50;;;16.97;;
17251;SDS011;8742;51.716;8.790;2022-12-07T08:27:47;38.00;;;16.67;;
17251;SDS011;8742;51.716;8.790;2022-12-07T08:30:14;38.40;;;16.67;;
17251;SDS011;8742;51.716;8.790;2022-12-07T08:32:41;38.43;;;16.47;;
17251;SDS011;8742;51.716;8.790;2022-12-07T08:35:09;39.73;;;17.30;;
17251;SDS011;8742;51.716;8.790;2022-12-07T08:37:38;34.00;;;17.10;;
17251;SDS011;8742;51.716;8.790;2022-12-07T08:40:05;242.53;;;32.00;;
17251;SDS011;8742;51.716;8.790;2022-12-07T08:42:33;139.57;;;25.97;;
17251;SDS011;8742;51.716;8.790;2022-12-07T08:45:05;33.77;;;16.03;;
17251;SDS011;8742;51.716;8.790;2022-12-07T08:47:33;40.07;;;16.40;;
17251;SDS011;8742;51.716;8.790;2022-12-07T08:50:01;35.07;;;16.70;;
17251;SDS011;8742;51.716;8.790;2022-12-07T08:52:30;39.53;;;17.90;;
17251;SDS011;8742;51.716;8.790;2022-12-07T08:54:58;36.80;;;16.17;;
17251;SDS011;8742;51.716;8.790;2022-12-07T08:57:27;39.37;;;17.43;;
17251;SDS011;8742;51.716;8.790;2022-12-07T08:59:55;34.83;;;17.53;;
17251;SDS011;8742;51.716;8.790;2022-12-07T09:02:22;39.60;;;16.80;;
17251;SDS011;8742;51.716;8.790;2022-12-07T09:04:49;30.70;;;15.70;;
17251;SDS011;8742;51.716;8.790;2022-12-07T09:07:15;28.90;;;14.13;;
17251;SDS011;8742;51.716;8.790;2022-12-07T09:09:42;28.10;;;12.87;;
17251;SDS011;8742;51.716;8.790;2022-12-07T09:12:11;31.43;;;14.00;;
17251;SDS011;8742;51.716;8.790;2022-12-07T09:14:37;27.43;;;12.63;;
17251;SDS011;8742;51.716;8.790;2022-12-07T09:17:05;30.17;;;12.07;;
17251;SDS011;8742;51.716;8.790;2022-12-07T09:19:32;39.07;;;13.90;;
17251;SDS011;8742;51.716;8.790;2022-12-07T09:21:59;31.57;;;13.47;;
17251;SDS011;8742;51.716;8.790;2022-12-07T09:24:26;28.43;;;13.43;;
17251;SDS011;8742;51.716;8.790;2022-12-07T09:26:53;30.10;;;12.60;;
17251;SDS011;8742;51.716;8.790;2022-12-07T09:29:21;28.73;;;12.30;;
17251;SDS011;8742;51.716;8.790;2022-12-07T09:31:48;31.83;;;11.70;;
17251;SDS011;8742;51.716;8.790;2022-12-07T09:34:15;23.03;;;11.60;;
17251;SDS011;8742;51.716;8.790;2022-12-07T09:36:42;25.07;;;11.53;;
17251;SDS011;8742;51.716;8.790;2022-12-07T09:39:09;21.13;;;10.77;;
17251;SDS011;8742;51.716;8.790;2022-12-07T09:41:37;30.30;;;10.97;;
17251;SDS011;8742;51.716;8.790;2022-12-07T09:44:06;23.93;;;11.13;;
17251;SDS011;8742;51.716;8.790;2022-12-07T09:49:16;25.30;;;11.97;;
17251;SDS011;8742;51.716;8.790;2022-12-07T09:51:45;24.60;;;10.73;;
17251;SDS011;8742;51.716;8.790;2022-12-07T09:54:13;20.73;;;10.73;;
17251;SDS011;8742;51.716;8.790;2022-12-07T09:56:41;22.30;;;11.00;;
17251;SDS011;8742;51.716;8.790;2022-12-07T09:59:11;36.60;;;11.70;;
17251;SDS011;8742;51.716;8.790;2022-12-07T10:01:43;24.27;;;10.30;;
17251;SDS011;8742;51.716;8.790;2022-12-07T10:04:11;26.87;;;10.30;;
17251;SDS011;8742;51.716;8.790;2022-12-07T10:06:42;23.60;;;10.57;;
17251;SDS011;8742;51.716;8.790;2022-12-07T10:09:09;24.97;;;11.33;;
17251;SDS011;8742;51.716;8.790;2022-12-07T10:14:25;22.87;;;9.83;;
17251;SDS011;8742;51.716;8.790;2022-12-07T10:16:55;18.10;;;9.70;;
17251;SDS011;8742;51.716;8.790;2022-12-07T10:19:23;26.10;;;9.33;;
17251;SDS011;8742;51.716;8.790;2022-12-07T10:22:08;24.50;;;9.27;;
17251;SDS011;8742;51.716;8.790;2022-12-07T10:24:36;23.10;;;9.23;;
17251;SDS011;8742;51.716;8.790;2022-12-07T10:27:04;16.70;;;8.77;;
17251;SDS011;8742;51.716;8.790;2022-12-07T10:29:43;23.37;;;9.30;;
17251;SDS011;8742;51.716;8.790;2022-12-07T10:32:26;18.70;;;8.73;;
17251;SDS011;8742;51.716;8.790;2022-12-07T10:35:15;19.30;;;8.70;;
17251;SDS011;8742;51.716;8.790;2022-12-07T10:37:47;18.07;;;8.90;;
17251;SDS011;8742;51.716;8.790;2022-12-07T10:40:25;14.43;;;7.97;;
17251;SDS011;8742;51.716;8.790;2022-12-07T10:43:05;23.90;;;9.27;;
17251;SDS011;8742;51.716;8.790;2022-12-07T10:45:55;17.37;;;8.87;;
17251;SDS011;8742;51.716;8.790;2022-12-07T10:48:45;20.90;;;8.83;;
17251;SDS011;8742;51.716;8.790;2022-12-07T10:51:19;18.00;;;8.43;;
17251;SDS011;8742;51.716;8.790;2022-12-07T10:53:58;16.47;;;8.23;;
17251;SDS011;8742;51.716;8.790;2022-12-07T10:59:39;16.33;;;8.30;;
17251;SDS011;8742;51.716;8.790;2022-12-07T11:02:24;18.87;;;8.20;;
17251;SDS011;8742;51.716;8.790;2022-12-07T11:05:05;17.97;;;8.30;;
17251;SDS011;8742;51.716;8.790;2022-12-07T11:07:41;20.23;;;8.83;;
17251;SDS011;8742;51.716;8.790;2022-12-07T11:10:16;26.47;;;9.03;;
17251;SDS011;8742;51.716;8.790;2022-12-07T11:13:00;16.67;;;7.97;;
17251;SDS011;8742;51.716;8.790;2022-12-07T11:15:36;20.73;;;8.17;;
17251;SDS011;8742;51.716;8.790;2022-12-07T11:18:18;18.43;;;8.27;;
17251;SDS011;8742;51.716;8.790;2022-12-07T11:20:51;15.83;;;7.83;;
17251;SDS011;8742;51.716;8.790;2022-12-07T11:23:25;17.50;;;8.47;;
17251;SDS011;8742;51.716;8.790;2022-12-07T11:26:01;17.00;;;8.20;;
17251;SDS011;8742;51.716;8.790;2022-12-07T11:28:39;15.60;;;8.20;;
17251;SDS011;8742;51.716;8.790;2022-12-07T11:31:18;17.77;;;8.57;;
17251;SDS011;8742;51.716;8.790;2022-12-07T11:33:52;19.57;;;8.77;;
17251;SDS011;8742;51.716;8.790;2022-12-07T11:36:30;14.77;;;7.50;;
17251;SDS011;8742;51.716;8.790;2022-12-07T11:39:02;13.13;;;8.03;;
17251;SDS011;8742;51.716;8.790;2022-12-07T11:41:35;15.70;;;7.70;;
17251;SDS011;8742;51.716;8.790;2022-12-07T11:44:05;19.07;;;8.27;;
17251;SDS011;8742;51.716;8.790;2022-12-07T11:46:40;21.30;;;7.90;;
17251;SDS011;8742;51.716;8.790;2022-12-07T11:49:13;12.37;;;7.23;;
17251;SDS011;8742;51.716;8.790;2022-12-07T11:51:45;23.40;;;8.07;;
17251;SDS011;8742;51.716;8.790;2022-12-07T11:54:17;13.37;;;7.07;;
17251;SDS011;8742;51.716;8.790;2022-12-07T11:56:49;15.90;;;7.47;;
17251;SDS011;8742;51.716;8.790;2022-12-07T11:59:17;17.87;;;7.43;;
17251;SDS011;8742;51.716;8.790;2022-12-07T12:01:52;20.67;;;7.97;;
17251;SDS011;8742;51.716;8.790;2022-12-07T12:04:25;16.27;;;7.60;;
17251;SDS011;8742;51.716;8.790;2022-12-07T12:06:57;20.73;;;8.57;;
17251;SDS011;8742;51.716;8.790;2022-12-07T12:09:25;14.47;;;6.93;;
17251;SDS011;8742;51.716;8.790;2022-12-07T12:12:07;12.93;;;6.73;;
17251;SDS011;8742;51.716;8.790;2022-12-07T12:14:47;18.47;;;6.70;;
17251;SDS011;8742;51.716;8.790;2022-12-07T12:20:26;14.23;;;6.47;;
17251;SDS011;8742;51.716;8.790;2022-12-07T12:22:58;17.83;;;7.07;;
17251;SDS011;8742;51.716;8.790;2022-12-07T12:25:34;14.93;;;5.97;;
17251;SDS011;8742;51.716;8.790;2022-12-07T12:28:05;13.70;;;7.07;;
17251;SDS011;8742;51.716;8.790;2022-12-07T12:30:42;18.13;;;6.97;;
17251;SDS011;8742;51.716;8.790;2022-12-07T12:33:13;18.67;;;6.27;;
17251;SDS011;8742;51.716;8.790;2022-12-07T12:35:42;15.03;;;6.30;;
17251;SDS011;8742;51.716;8.790;2022-12-07T12:38:21;25.83;;;8.17;;
17251;SDS011;8742;51.716;8.790;2022-12-07T12:40:53;19.47;;;7.23;;
17251;SDS011;8742;51.716;8.790;2022-12-07T12:55:21;10.77;;;4.77;;
17251;SDS011;8742;51.716;8.790;2022-12-07T13:04:18;14.23;;;5.33;;
17251;SDS011;8742;51.716;8.790;2022-12-07T13:07:03;17.53;;;4.80;;
17251;SDS011;8742;51.716;8.790;2022-12-07T13:09:34;8.97;;;4.70;;
17251;SDS011;8742;51.716;8.790;2022-12-07T13:12:03;16.47;;;5.57;;
17251;SDS011;8742;51.716;8.790;2022-12-07T13:14:55;14.00;;;5.10;;
17251;SDS011;8742;51.716;8.790;2022-12-07T13:20:46;11.83;;;5.20;;
17251;SDS011;8742;51.716;8.790;2022-12-07T13:23:25;11.03;;;4.77;;
17251;SDS011;8742;51.716;8.790;2022-12-07T13:25:56;14.53;;;4.43;;
17251;SDS011;8742;51.716;8.790;2022-12-07T13:28:32;8.73;;;4.13;;
17251;SDS011;8742;51.716;8.790;2022-12-07T13:31:15;11.37;;;4.13;;
17251;SDS011;8742;51.716;8.790;2022-12-07T13:33:49;7.73;;;3.40;;
17251;SDS011;8742;51.716;8.790;2022-12-07T13:36:20;12.27;;;4.50;;
17251;SDS011;8742;51.716;8.790;2022-12-07T13:38:50;18.83;;;4.30;;
17251;SDS011;8742;51.716;8.790;2022-12-07T13:41:19;11.70;;;3.90;;
17251;SDS011;8742;51.716;8.790;2022-12-07T13:43:52;8.77;;;4.07;;
17251;SDS011;8742;51.716;8.790;2022-12-07T13:46:24;11.03;;;4.70;;
17251;SDS011;8742;51.716;8.790;2022-12-07T13:48:57;13.07;;;4.50;;
17251;SDS011;8742;51.716;8.790;2022-12-07T13:51:25;17.50;;;4.90;;
17251;SDS011;8742;51.716;8.790;2022-12-07T13:53:54;21.87;;;4.67;;
17251;SDS011;8742;51.716;8.790;2022-12-07T13:56:26;10.13;;;4.57;;
17251;SDS011;8742;51.716;8.790;2022-12-07T13:59:00;14.50;;;4.83;;
17251;SDS011;8742;51.716;8.790;2022-12-07T14:01:27;13.03;;;4.73;;
17251;SDS011;8742;51.716;8.790;2022-12-07T14:03:57;7.90;;;4.27;;
17251;SDS011;8742;51.716;8.790;2022-12-07T14:06:48;11.37;;;4.93;;
17251;SDS011;8742;51.716;8.790;2022-12-07T14:09:17;10.90;;;4.07;;
17251;SDS011;8742;51.716;8.790;2022-12-07T14:11:45;12.53;;;4.37;;
17251;SDS011;8742;51.716;8.790;2022-12-07T14:14:14;7.67;;;4.27;;
17251;SDS011;8742;51.716;8.790;2022-12-07T14:16:54;12.03;;;4.70;;
17251;SDS011;8742;51.716;8.790;2022-12-07T14:19:39;16.20;;;4.30;;
17251;SDS011;8742;51.716;8.790;2022-12-07T14:22:17;14.40;;;4.57;;
17251;SDS011;8742;51.716;8.790;2022-12-07T14:24:48;11.50;;;4.83;;
17251;SDS011;8742;51.716;8.790;2022-12-07T14:27:16;14.37;;;4.30;;
17251;SDS011;8742;51.716;8.790;2022-12-07T14:29:45;16.00;;;4.73;;
17251;SDS011;8742;51.716;8.790;2022-12-07T14:32:17;12.50;;;4.20;;
17251;SDS011;8742;51.716;8.790;2022-12-07T14:34:57;10.53;;;4.33;;
17251;SDS011;8742;51.716;8.790;2022-12-07T14:37:28;9.20;;;3.80;;
17251;SDS011;8742;51.716;8.790;2022-12-07T14:39:55;8.03;;;3.63;;
17251;SDS011;8742;51.716;8.790;2022-12-07T14:42:24;17.57;;;3.70;;
17251;SDS011;8742;51.716;8.790;2022-12-07T14:44:53;10.97;;;3.87;;
17251;SDS011;8742;51.716;8.790;2022-12-07T14:47:21;11.00;;;3.77;;
17251;SDS011;8742;51.716;8.790;2022-12-07T14:49:47;7.77;;;3.00;;
17251;SDS011;8742;51.716;8.790;2022-12-07T14:52:16;9.50;;;3.53;;
17251;SDS011;8742;51.716;8.790;2022-12-07T14:54:47;7.73;;;3.53;;
17251;SDS011;8742;51.716;8.790;2022-12-07T14:57:13;13.10;;;4.67;;
17251;SDS011;8742;51.716;8.790;2022-12-07T14:59:40;7.70;;;3.17;;
17251;SDS011;8742;51.716;8.790;2022-12-07T15:02:09;11.03;;;3.50;;
17251;SDS011;8742;51.716;8.790;2022-12-07T15:04:38;9.23;;;3.27;;
17251;SDS011;8742;51.716;8.790;2022-12-07T15:07:06;10.63;;;3.37;;
17251;SDS011;8742;51.716;8.790;2022-12-07T15:09:36;15.80;;;3.93;;
17251;SDS011;8742;51.716;8.790;2022-12-07T15:12:05;6.67;;;3.60;;
17251;SDS011;8742;51.716;8.790;2022-12-07T15:14:32;12.80;;;3.77;;
17251;SDS011;8742;51.716;8.790;2022-12-07T15:16:58;11.03;;;3.50;;
17251;SDS011;8742;51.716;8.790;2022-12-07T15:19:25;14.97;;;4.63;;
17251;SDS011;8742;51.716;8.790;2022-12-07T15:21:52;6.80;;;3.57;;
17251;SDS011;8742;51.716;8.790;2022-12-07T15:24:19;9.00;;;3.57;;
17251;SDS011;8742;51.716;8.790;2022-12-07T15:26:46;9.67;;;3.60;;
17251;SDS011;8742;51.716;8.790;2022-12-07T15:29:15;13.60;;;4.23;;
17251;SDS011;8742;51.716;8.790;2022-12-07T15:31:42;7.43;;;4.10;;
17251;SDS011;8742;51.716;8.790;2022-12-07T15:34:09;7.67;;;4.23;;
17251;SDS011;8742;51.716;8.790;2022-12-07T15:36:36;12.60;;;4.73;;